KBFF

Western Nebraska Regional Airport

Airport
ICAO code
KBFF
Summary
ICAO Region
NAM
ICAO Territory
Location

Scottsbuluff, Nebraska,

Coordinates
41° 52' 4" N , 103° 35' 48" W
KCC
Airport CFIT
Altimeter Temperature Error Correction
Metar
KBFF 251453Z AUTO 31010KT 10SM CLR 27/09 A2995 RMK AO2 SLP084 T02670094 51012

Description

Western Nebraska Regional Airport (William B. Heilig Field) is a public airport located 5 km east of Scottsbluff, in Scotts Bluff County, Nebraska.

Climatology

Semi-arid climate (Köppen climate classification BSk). - Hot, sometimes extremely hot summers and cold, sometimes very cold winters. Some snowfall during the winter. Areas featuring cold semi-arid climates are sometimes subject to major temperature swings during a 24 hour period.

Airport map

Aerial View

SKYbrary Partners:

Safety knowledge contributed by: